createdAt,value
2023-04-23T00:02:23.021Z,75.40
2023-04-23T00:04:52.926Z,77.10
2023-04-23T00:07:23.886Z,78.22
2023-04-23T00:09:52.065Z,72.57
2023-04-23T00:12:19.518Z,81.35
2023-04-23T00:14:46.839Z,78.45
2023-04-23T00:17:14.080Z,83.43
2023-04-23T00:19:43.880Z,77.03
2023-04-23T00:22:11.147Z,83.20
2023-04-23T00:24:39.366Z,79.68
2023-04-23T00:27:07.243Z,79.93
2023-04-23T00:29:34.481Z,83.30
2023-04-23T00:32:05.557Z,79.05
2023-04-23T00:34:33.012Z,87.35
2023-04-23T00:37:00.315Z,85.18
2023-04-23T00:39:27.496Z,82.53
2023-04-23T00:41:54.668Z,81.32
2023-04-23T00:44:22.688Z,80.85
2023-04-23T00:46:51.156Z,80.40
2023-04-23T00:49:18.994Z,82.90
2023-04-23T00:51:46.409Z,82.55
2023-04-23T00:54:14.237Z,88.75
2023-04-23T00:56:41.442Z,82.35
2023-04-23T00:59:09.405Z,85.65
2023-04-23T01:01:36.686Z,86.47
2023-04-23T01:04:04.259Z,80.70
2023-04-23T01:06:31.896Z,84.85
2023-04-23T01:08:59.387Z,82.40
2023-04-23T01:11:26.711Z,84.72
2023-04-23T01:13:54.267Z,94.10
2023-04-23T01:16:22.182Z,91.85
2023-04-23T01:18:49.625Z,88.05
2023-04-23T01:21:17.791Z,84.97
2023-04-23T01:23:44.920Z,84.63
2023-04-23T01:26:12.210Z,97.78
2023-04-23T01:28:39.894Z,81.28
2023-04-23T01:31:07.525Z,91.15
2023-04-23T01:33:35.379Z,92.38
2023-04-23T01:36:05.290Z,91.50
2023-04-23T01:38:33.919Z,88.35
2023-04-23T01:41:01.249Z,85.95
2023-04-23T01:43:29.366Z,84.57
2023-04-23T01:45:56.518Z,88.50
2023-04-23T01:48:23.990Z,90.22
2023-04-23T01:50:52.097Z,84.68
2023-04-23T01:53:19.573Z,87.97
2023-04-23T01:55:47.827Z,92.03
2023-04-23T01:58:16.595Z,81.57
2023-04-23T02:00:43.810Z,88.50
2023-04-23T02:03:11.311Z,95.25
2023-04-23T02:05:39.723Z,84.63
2023-04-23T02:08:07.083Z,79.72
2023-04-23T02:10:34.250Z,84.90
2023-04-23T02:13:02.259Z,80.50
2023-04-23T02:15:29.956Z,75.38
2023-04-23T02:17:57.308Z,80.03
2023-04-23T02:20:25.277Z,74.75
2023-04-23T02:22:52.602Z,70.95
2023-04-23T02:25:22.078Z,70.43
2023-04-23T02:27:49.474Z,73.30
2023-04-23T02:30:16.743Z,69.40
2023-04-23T02:32:44.306Z,72.07
2023-04-23T02:35:12.831Z,70.05
2023-04-23T02:37:40.402Z,72.75
2023-04-23T02:40:08.167Z,71.95
2023-04-23T02:42:35.416Z,65.70
2023-04-23T02:45:03.388Z,65.10
2023-04-23T02:47:31.788Z,61.90
2023-04-23T02:49:59.393Z,66.30
2023-04-23T02:52:26.610Z,66.65
2023-04-23T02:54:53.819Z,64.78
2023-04-23T02:57:21.379Z,62.40
2023-04-23T02:59:48.620Z,65.57
2023-04-23T03:02:16.058Z,59.53
2023-04-23T03:04:43.602Z,59.80
2023-04-23T03:07:13.290Z,59.03
2023-04-23T03:09:42.356Z,60.90
2023-04-23T03:12:09.573Z,55.53
2023-04-23T03:14:36.778Z,54.88
2023-04-23T03:17:04.271Z,60.03
2023-04-23T03:19:31.677Z,56.75
2023-04-23T03:21:59.270Z,61.83
2023-04-23T03:24:28.251Z,53.80
2023-04-23T03:26:55.555Z,56.08
2023-04-23T03:29:22.744Z,58.63
2023-04-23T03:31:50.049Z,57.47
2023-04-23T03:34:17.342Z,55.58
2023-04-23T03:36:46.406Z,49.80
2023-04-23T03:39:13.677Z,57.42
2023-04-23T03:41:40.860Z,53.45
2023-04-23T03:44:08.058Z,54.25
2023-04-23T03:46:35.906Z,55.33
2023-04-23T03:49:05.404Z,49.67
2023-04-23T03:51:32.765Z,51.50
2023-04-23T03:53:59.951Z,45.85
2023-04-23T03:56:27.372Z,47.95
2023-04-23T03:58:54.705Z,53.90
2023-04-23T04:01:22.193Z,47.50
2023-04-23T04:03:49.553Z,47.30
2023-04-23T04:06:16.907Z,46.13
2023-04-23T04:08:44.280Z,47.80
2023-04-23T04:11:11.491Z,48.53
2023-04-23T04:13:38.821Z,46.15
2023-04-23T04:16:06.284Z,48.22
2023-04-23T04:18:33.586Z,48.22
2023-04-23T04:21:00.984Z,47.70
2023-04-23T04:23:28.761Z,45.28
2023-04-23T04:25:57.641Z,45.08
2023-04-23T04:28:25.279Z,44.75
2023-04-23T04:30:57.637Z,46.72
2023-04-23T04:33:25.994Z,43.00
2023-04-23T04:35:54.976Z,46.47
2023-04-23T04:38:22.423Z,42.60
2023-04-23T04:40:50.657Z,45.03
2023-04-23T04:43:18.490Z,47.28
2023-04-23T04:45:45.702Z,46.22
2023-04-23T04:48:12.886Z,45.00
2023-04-23T04:50:40.135Z,43.85
2023-04-23T04:53:07.462Z,42.55
2023-04-23T04:55:34.769Z,49.40
2023-04-23T04:58:02.094Z,40.47
2023-04-23T05:00:30.606Z,44.97
2023-04-23T05:02:58.620Z,38.88
2023-04-23T05:05:26.698Z,42.28
2023-04-23T05:07:54.582Z,40.55
2023-04-23T05:10:22.345Z,37.42
2023-04-23T05:12:51.849Z,42.15
2023-04-23T05:15:19.220Z,43.72
2023-04-23T05:17:46.634Z,41.40
2023-04-23T05:20:16.568Z,41.80
2023-04-23T05:22:43.890Z,40.83
2023-04-23T05:25:15.082Z,35.20
2023-04-23T05:27:42.379Z,31.15
2023-04-23T05:30:10.540Z,27.23
2023-04-23T05:32:38.307Z,25.73
2023-04-23T05:35:06.244Z,25.52
2023-04-23T05:37:33.628Z,26.70
2023-04-23T05:40:01.168Z,26.65
2023-04-23T05:42:28.381Z,23.90
2023-04-23T05:44:55.767Z,22.85
2023-04-23T05:47:23.055Z,23.45
2023-04-23T05:49:50.411Z,20.95
2023-04-23T05:52:17.904Z,23.15
2023-04-23T05:54:45.199Z,22.70
2023-04-23T05:57:12.829Z,22.00
2023-04-23T05:59:40.191Z,21.38
2023-04-23T06:02:08.366Z,21.77
2023-04-23T06:04:36.451Z,24.42
2023-04-23T06:07:04.376Z,22.37
2023-04-23T06:09:31.521Z,23.02
2023-04-23T06:11:58.813Z,21.80
2023-04-23T06:14:26.161Z,20.08
2023-04-23T06:16:53.374Z,21.02
2023-04-23T06:19:20.502Z,22.73
2023-04-23T06:21:47.693Z,19.92
2023-04-23T06:24:14.926Z,19.08
2023-04-23T06:26:42.183Z,19.90
2023-04-23T06:29:09.329Z,18.95
2023-04-23T06:31:36.616Z,18.90
2023-04-23T06:34:03.793Z,16.95
2023-04-23T06:36:30.982Z,17.67
2023-04-23T06:38:58.190Z,16.63
2023-04-23T06:41:25.723Z,16.45
2023-04-23T06:43:53.013Z,18.17
2023-04-23T06:46:20.356Z,17.10
2023-04-23T06:48:47.599Z,16.65
2023-04-23T06:51:16.972Z,16.30
2023-04-23T06:53:44.137Z,15.70
2023-04-23T06:56:11.432Z,15.40
2023-04-23T06:58:39.166Z,14.75
2023-04-23T07:01:07.686Z,16.58
2023-04-23T07:03:36.489Z,16.05
2023-04-23T07:06:03.737Z,13.45
2023-04-23T07:08:31.083Z,14.80
2023-04-23T07:10:58.273Z,12.88
2023-04-23T07:13:25.494Z,15.95
2023-04-23T07:15:52.720Z,12.55
2023-04-23T07:18:20.173Z,13.18
2023-04-23T07:20:47.608Z,14.00
2023-04-23T07:23:14.858Z,13.68
2023-04-23T07:25:42.151Z,12.15
2023-04-23T07:28:09.355Z,12.95
2023-04-23T07:30:36.984Z,11.85
2023-04-23T07:33:04.290Z,12.20
2023-04-23T07:35:31.484Z,12.13
2023-04-23T07:37:58.642Z,10.77
2023-04-23T07:40:26.178Z,11.98
2023-04-23T07:42:53.506Z,15.20
2023-04-23T07:45:20.737Z,10.27
2023-04-23T07:47:49.272Z,10.93
2023-04-23T07:50:16.663Z,13.27
2023-04-23T07:52:44.055Z,10.88
2023-04-23T07:55:11.433Z,11.82
2023-04-23T07:57:38.566Z,11.17
2023-04-23T08:00:09.357Z,9.07
2023-04-23T08:02:36.744Z,9.75
2023-04-23T08:05:04.210Z,14.63
2023-04-23T08:07:31.609Z,10.10
2023-04-23T08:10:03.014Z,9.43
2023-04-23T08:12:31.132Z,9.90
2023-04-23T08:14:59.698Z,11.82
2023-04-23T08:17:26.924Z,10.15
2023-04-23T08:19:54.240Z,11.93
2023-04-23T08:22:22.168Z,8.53
2023-04-23T08:24:49.528Z,10.43
2023-04-23T08:27:16.715Z,8.88
2023-04-23T08:29:44.251Z,10.25
2023-04-23T08:32:11.634Z,10.27
2023-04-23T08:34:38.839Z,9.87
2023-04-23T08:37:08.551Z,8.45
2023-04-23T08:39:39.673Z,8.35
2023-04-23T08:42:40.583Z,8.43
2023-04-23T08:45:08.354Z,9.65
2023-04-23T08:47:36.512Z,10.23
2023-04-23T08:50:04.824Z,9.95
2023-04-23T08:52:34.187Z,10.55
2023-04-23T08:55:02.276Z,8.48
2023-04-23T08:57:29.513Z,10.10
2023-04-23T08:59:57.264Z,7.80
2023-04-23T09:02:25.100Z,11.90
2023-04-23T09:04:56.187Z,10.10
2023-04-23T09:07:24.476Z,10.43
2023-04-23T09:09:51.827Z,7.65
2023-04-23T09:12:18.999Z,8.93
2023-04-23T09:14:46.331Z,7.75
2023-04-23T09:17:13.583Z,9.50
2023-04-23T09:19:41.167Z,10.05
2023-04-23T09:22:09.247Z,10.00
2023-04-23T09:24:36.641Z,11.43
2023-04-23T09:27:04.119Z,8.10
2023-04-23T09:29:31.531Z,9.38
2023-04-23T09:32:10.869Z,9.73
2023-04-23T09:34:38.098Z,9.30
2023-04-23T09:37:11.844Z,7.83
2023-04-23T09:39:40.557Z,7.00
2023-04-23T09:42:10.808Z,7.85
2023-04-23T09:44:37.947Z,7.78
2023-04-23T09:47:15.024Z,7.53
2023-04-23T09:49:49.609Z,6.93
2023-04-23T09:52:17.126Z,7.72
2023-04-23T09:54:46.614Z,11.65
2023-04-23T09:57:14.050Z,7.25
2023-04-23T09:59:48.939Z,8.40
2023-04-23T10:02:20.357Z,10.00
2023-04-23T10:05:00.620Z,9.60
2023-04-23T10:07:34.195Z,6.32
2023-04-23T10:10:01.483Z,10.45
2023-04-23T10:12:46.459Z,7.40
2023-04-23T10:15:15.947Z,7.70
2023-04-23T10:17:43.260Z,6.07
2023-04-23T10:20:12.707Z,8.55
2023-04-23T10:22:41.887Z,8.00
2023-04-23T10:25:11.384Z,7.10
2023-04-23T10:27:51.923Z,6.87
2023-04-23T10:30:20.147Z,8.60
2023-04-23T10:32:49.189Z,7.95
2023-04-23T10:35:16.647Z,8.52
2023-04-23T10:37:46.011Z,7.18
2023-04-23T10:40:15.041Z,5.57
2023-04-23T10:42:43.746Z,8.13
2023-04-23T10:45:23.482Z,5.68
2023-04-23T10:47:53.807Z,6.60
2023-04-23T10:50:25.259Z,5.93
2023-04-23T10:52:58.700Z,5.37
2023-04-23T10:55:30.037Z,5.07
2023-04-23T10:58:02.616Z,5.45
2023-04-23T11:00:51.061Z,6.60
2023-04-23T11:03:45.362Z,5.22
2023-04-23T11:06:20.693Z,8.83
2023-04-23T11:08:54.761Z,6.70
2023-04-23T11:11:26.200Z,6.03
2023-04-23T11:13:54.335Z,5.70
2023-04-23T11:16:22.678Z,6.25
2023-04-23T11:18:59.401Z,4.17
2023-04-23T11:21:45.473Z,6.70
2023-04-23T11:24:12.768Z,7.35
2023-04-23T11:26:40.572Z,5.22
2023-04-23T11:29:08.096Z,6.60
2023-04-23T11:31:35.732Z,7.53
2023-04-23T11:34:03.356Z,5.72
2023-04-23T11:36:31.150Z,8.38
2023-04-23T11:38:58.477Z,5.60
2023-04-23T11:41:25.620Z,6.35
2023-04-23T11:43:52.964Z,5.47
2023-04-23T11:46:20.308Z,8.60
2023-04-23T11:48:49.683Z,5.43
2023-04-23T11:51:17.029Z,5.20
2023-04-23T11:53:47.999Z,5.57
2023-04-23T11:56:18.332Z,8.43
2023-04-23T11:58:45.634Z,4.80
2023-04-23T12:01:13.372Z,5.53
2023-04-23T12:03:40.950Z,9.02
2023-04-23T12:06:08.322Z,8.13
2023-04-23T12:08:36.230Z,5.30
2023-04-23T12:11:06.283Z,5.85
2023-04-23T12:13:34.135Z,5.40
2023-04-23T12:16:02.871Z,5.72
2023-04-23T12:18:44.482Z,6.00
2023-04-23T12:21:18.859Z,7.43
2023-04-23T12:23:46.115Z,5.47
2023-04-23T12:26:15.070Z,4.68
2023-04-23T12:28:50.718Z,4.68
2023-04-23T12:31:21.831Z,6.60
2023-04-23T12:33:54.370Z,5.73
2023-04-23T12:36:21.655Z,5.47
2023-04-23T12:38:48.826Z,6.63
2023-04-23T12:41:15.967Z,6.15
2023-04-23T12:43:43.054Z,6.65
2023-04-23T12:46:10.527Z,6.53
2023-04-23T12:48:37.876Z,4.10
2023-04-23T12:51:06.701Z,5.38
2023-04-23T12:53:33.957Z,5.20
2023-04-23T12:56:01.069Z,3.65
2023-04-23T12:58:28.393Z,4.47
2023-04-23T13:00:55.730Z,4.68
2023-04-23T13:03:24.155Z,5.03
2023-04-23T13:05:52.386Z,5.15
2023-04-23T13:08:19.794Z,5.85
2023-04-23T13:10:47.029Z,5.57
2023-04-23T13:13:14.376Z,5.65
2023-04-23T13:15:42.701Z,4.85
2023-04-23T13:18:09.827Z,3.95
2023-04-23T13:20:37.021Z,4.10
2023-04-23T13:23:04.237Z,2.87
2023-04-23T13:25:31.625Z,6.20
2023-04-23T13:27:58.744Z,7.05
2023-04-23T13:30:25.965Z,6.03
2023-04-23T13:32:53.764Z,4.10
2023-04-23T13:35:21.109Z,6.07
2023-04-23T13:37:48.264Z,3.13
2023-04-23T13:40:15.790Z,7.72
2023-04-23T13:42:42.974Z,5.38
2023-04-23T13:45:10.321Z,4.82
2023-04-23T13:47:37.590Z,4.63
2023-04-23T13:50:06.746Z,5.20
2023-04-23T13:52:34.264Z,5.80
2023-04-23T13:55:03.735Z,4.68
2023-04-23T13:57:30.877Z,6.65
2023-04-23T13:59:58.523Z,4.40
2023-04-23T14:02:26.013Z,4.30
2023-04-23T14:04:53.724Z,2.90
2023-04-23T14:07:21.177Z,6.15
2023-04-23T14:09:52.775Z,4.90
2023-04-23T14:12:20.893Z,4.50
2023-04-23T14:14:48.044Z,3.63
2023-04-23T14:17:15.568Z,5.03
2023-04-23T14:19:44.139Z,4.65
2023-04-23T14:22:11.598Z,3.53
2023-04-23T14:24:46.328Z,3.47
2023-04-23T14:27:13.526Z,6.68
2023-04-23T14:29:41.031Z,6.43
2023-04-23T14:32:08.749Z,5.25
2023-04-23T14:34:37.961Z,7.88
2023-04-23T14:37:05.643Z,5.67
2023-04-23T14:39:34.435Z,3.80
2023-04-23T14:42:01.628Z,4.28
2023-04-23T14:44:29.135Z,4.53
2023-04-23T14:46:57.753Z,5.78
2023-04-23T14:49:25.146Z,5.63
2023-04-23T14:51:58.399Z,4.70
2023-04-23T14:54:26.031Z,4.57
2023-04-23T14:56:53.363Z,4.97
2023-04-23T14:59:22.257Z,6.68
2023-04-23T15:01:49.581Z,4.23
2023-04-23T15:04:17.225Z,6.35
2023-04-23T15:06:45.034Z,8.07
2023-04-23T15:09:12.446Z,8.88
2023-04-23T15:11:42.275Z,9.48
2023-04-23T15:14:17.039Z,8.37
2023-04-23T15:19:14.396Z,5.90
2023-04-23T15:21:43.329Z,6.80
2023-04-23T15:24:10.649Z,6.85
2023-04-23T15:26:38.495Z,6.03
2023-04-23T15:29:08.773Z,8.75
2023-04-23T15:31:40.164Z,5.40
2023-04-23T15:34:09.411Z,6.07
2023-04-23T15:36:38.380Z,6.25
2023-04-23T15:39:06.455Z,5.87
2023-04-23T15:41:33.777Z,6.60
2023-04-23T15:44:02.472Z,5.07
2023-04-23T15:46:29.688Z,6.07
2023-04-23T15:48:56.992Z,9.27
2023-04-23T15:51:24.254Z,7.27
2023-04-23T15:53:51.875Z,7.57
2023-04-23T15:56:19.092Z,6.63
2023-04-23T15:58:46.379Z,5.72
2023-04-23T16:01:13.482Z,7.60
2023-04-23T16:03:44.034Z,6.73
2023-04-23T16:06:17.901Z,4.85
2023-04-23T16:08:45.218Z,5.20
2023-04-23T16:11:14.840Z,5.38
2023-04-23T16:13:42.200Z,4.75
2023-04-23T16:16:09.519Z,4.93
2023-04-23T16:18:36.655Z,3.35
2023-04-23T16:21:06.179Z,3.22
2023-04-23T16:23:33.400Z,5.90
2023-04-23T16:26:01.816Z,3.33
2023-04-23T16:28:29.130Z,3.90
2023-04-23T16:30:56.633Z,3.58
2023-04-23T16:33:25.806Z,5.72
2023-04-23T16:35:53.270Z,3.80
2023-04-23T16:38:20.426Z,5.75
2023-04-23T16:40:47.628Z,3.50
2023-04-23T16:43:14.951Z,4.75
2023-04-23T16:45:42.161Z,3.97
2023-04-23T16:48:12.953Z,3.22
2023-04-23T16:50:42.854Z,2.70
2023-04-23T16:53:10.173Z,4.47
2023-04-23T16:55:40.090Z,3.85
2023-04-23T16:58:07.435Z,4.53
2023-04-23T17:00:34.617Z,3.55
2023-04-23T17:03:01.949Z,4.25
2023-04-23T17:05:31.956Z,9.67
2023-04-23T17:07:59.682Z,5.28
2023-04-23T17:10:27.007Z,5.80
2023-04-23T17:12:55.259Z,3.88
2023-04-23T17:15:22.861Z,4.20
2023-04-23T17:17:50.181Z,5.93
2023-04-23T17:20:17.777Z,5.15
2023-04-23T17:22:45.550Z,5.45
2023-04-23T17:25:12.832Z,19.70
2023-04-23T17:27:40.019Z,11.57
2023-04-23T17:30:07.674Z,5.37
2023-04-23T17:32:34.975Z,9.88
2023-04-23T17:35:09.306Z,8.07
2023-04-23T17:37:37.738Z,7.18
2023-04-23T17:40:05.912Z,4.32
2023-04-23T17:42:33.273Z,5.17
2023-04-23T17:45:00.835Z,4.75
2023-04-23T17:47:29.124Z,4.38
2023-04-23T17:49:56.598Z,4.78
2023-04-23T17:52:23.993Z,5.88
2023-04-23T17:54:51.250Z,4.47
2023-04-23T17:57:18.453Z,3.75
2023-04-23T17:59:45.716Z,5.10
2023-04-23T18:02:12.988Z,5.25
2023-04-23T18:04:40.459Z,6.25
2023-04-23T18:07:07.759Z,5.33
2023-04-23T18:09:35.192Z,5.95
2023-04-23T18:12:03.949Z,5.72
2023-04-23T18:14:31.805Z,4.32
2023-04-23T18:16:59.176Z,4.60
2023-04-23T18:19:26.607Z,14.37
2023-04-23T18:21:54.941Z,8.88
2023-04-23T18:24:22.184Z,5.13
2023-04-23T18:26:52.197Z,4.82
2023-04-23T18:29:19.813Z,6.00
2023-04-23T18:31:47.066Z,5.30
2023-04-23T18:34:17.545Z,6.38
2023-04-23T18:36:45.028Z,6.63
2023-04-23T18:39:12.800Z,6.40
2023-04-23T18:41:40.132Z,4.55
2023-04-23T18:44:07.796Z,8.17
2023-04-23T18:46:35.264Z,8.10
2023-04-23T18:49:08.571Z,7.28
2023-04-23T18:51:43.739Z,5.72
2023-04-23T18:54:14.916Z,9.05
2023-04-23T18:56:42.374Z,12.37
2023-04-23T18:59:09.976Z,6.38
2023-04-23T19:01:37.285Z,5.60
2023-04-23T19:04:04.667Z,8.20
2023-04-23T19:06:32.408Z,6.90
2023-04-23T19:09:00.199Z,6.93
2023-04-23T19:11:30.147Z,6.65
2023-04-23T19:13:57.532Z,6.28
2023-04-23T19:16:24.821Z,6.68
2023-04-23T19:18:52.129Z,5.38
2023-04-23T19:21:19.429Z,6.37
2023-04-23T19:23:47.159Z,7.00
2023-04-23T19:26:15.034Z,6.20
2023-04-23T19:31:24.934Z,5.82
2023-04-23T19:33:52.289Z,6.73
2023-04-23T19:36:19.448Z,6.20
2023-04-23T19:38:48.483Z,6.05
2023-04-23T19:41:15.763Z,6.03
2023-04-23T19:43:42.968Z,6.50
2023-04-23T19:46:10.442Z,5.13
2023-04-23T19:48:37.794Z,8.27
2023-04-23T19:51:05.026Z,8.43
2023-04-23T19:53:33.290Z,6.30
2023-04-23T19:56:00.617Z,6.65
2023-04-23T19:58:28.810Z,6.17
2023-04-23T20:00:56.844Z,5.90
2023-04-23T20:03:24.250Z,4.43
2023-04-23T20:05:52.450Z,5.20
2023-04-23T20:08:26.294Z,5.72
2023-04-23T20:10:54.175Z,4.27
2023-04-23T20:13:21.531Z,6.15
2023-04-23T20:15:50.101Z,4.72
2023-04-23T20:18:19.836Z,4.55
2023-04-23T20:20:47.420Z,3.33
2023-04-23T20:23:14.689Z,3.80
2023-04-23T20:25:41.952Z,4.32
2023-04-23T20:28:10.297Z,5.13
2023-04-23T20:30:37.616Z,3.83
2023-04-23T20:33:05.007Z,3.85
2023-04-23T20:35:33.644Z,3.10
2023-04-23T20:38:00.930Z,4.05
2023-04-23T20:40:28.150Z,3.58
2023-04-23T20:42:55.346Z,2.58
2023-04-23T20:45:22.628Z,3.70
2023-04-23T20:47:50.196Z,3.07
2023-04-23T20:50:17.492Z,3.08
2023-04-23T20:52:44.732Z,2.33
2023-04-23T20:55:12.561Z,1.60
2023-04-23T20:57:39.877Z,1.50
2023-04-23T21:00:11.720Z,2.33
2023-04-23T21:02:39.805Z,2.47
2023-04-23T21:05:07.958Z,2.38
2023-04-23T21:07:36.665Z,2.80
2023-04-23T21:10:07.198Z,1.80
2023-04-23T21:12:34.484Z,2.03
2023-04-23T21:15:01.853Z,1.90
2023-04-23T21:17:29.070Z,2.35
2023-04-23T21:19:56.545Z,2.03
2023-04-23T21:22:23.821Z,3.30
2023-04-23T21:24:51.148Z,2.13
2023-04-23T21:27:21.973Z,2.70
2023-04-23T21:29:49.402Z,2.72
2023-04-23T21:32:17.096Z,4.00
2023-04-23T21:34:44.528Z,2.28
2023-04-23T21:37:11.936Z,2.83
2023-04-23T21:39:39.088Z,2.88
2023-04-23T21:42:06.546Z,3.40
2023-04-23T21:44:37.096Z,3.70
2023-04-23T21:47:04.944Z,2.80
2023-04-23T21:49:33.995Z,2.80
2023-04-23T21:52:02.255Z,3.28
2023-04-23T21:54:29.603Z,2.88
2023-04-23T21:56:56.925Z,3.20
2023-04-23T21:59:24.897Z,3.28
2023-04-23T22:01:52.073Z,2.90
2023-04-23T22:04:20.476Z,3.50
2023-04-23T22:06:47.862Z,3.50
2023-04-23T22:09:15.852Z,3.50
2023-04-23T22:11:55.290Z,4.55
2023-04-23T22:14:28.640Z,4.50
2023-04-23T22:16:58.597Z,4.53
2023-04-23T22:19:26.394Z,4.95
2023-04-23T22:21:53.684Z,5.88
2023-04-23T22:24:20.919Z,5.43
2023-04-23T22:26:50.771Z,6.53
2023-04-23T22:29:17.917Z,8.00
2023-04-23T22:31:45.172Z,10.00
2023-04-23T22:34:12.447Z,9.52
2023-04-23T22:36:43.114Z,9.00
2023-04-23T22:39:10.896Z,7.17
2023-04-23T22:41:40.175Z,5.10
2023-04-23T22:44:07.577Z,3.85
2023-04-23T22:46:34.977Z,3.58
2023-04-23T22:49:02.979Z,5.00
2023-04-23T22:51:33.673Z,3.43
2023-04-23T22:54:00.878Z,2.55
2023-04-23T22:56:28.152Z,3.90
2023-04-23T22:58:55.440Z,5.25
2023-04-23T23:01:22.728Z,2.97
2023-04-23T23:03:50.055Z,4.87
2023-04-23T23:06:17.841Z,8.93
2023-04-23T23:08:45.196Z,2.92
2023-04-23T23:11:12.542Z,3.22
2023-04-23T23:13:40.836Z,5.22
2023-04-23T23:16:08.249Z,3.93
2023-04-23T23:18:35.696Z,3.83
2023-04-23T23:21:03.092Z,4.03
2023-04-23T23:23:30.583Z,4.97
2023-04-23T23:25:59.861Z,3.90
2023-04-23T23:28:27.529Z,4.05
2023-04-23T23:30:55.560Z,3.45
2023-04-23T23:33:23.051Z,3.42
2023-04-23T23:35:50.730Z,2.70
2023-04-23T23:38:17.901Z,2.15
2023-04-23T23:40:45.327Z,2.30
2023-04-23T23:43:12.543Z,1.73
2023-04-23T23:45:39.894Z,2.83
2023-04-23T23:48:07.141Z,1.85
2023-04-23T23:50:34.653Z,3.50
2023-04-23T23:53:02.240Z,3.20
2023-04-23T23:55:29.573Z,3.10
2023-04-23T23:57:56.878Z,2.60
